createdAt,value
2018-03-29T00:01:34.447Z,34.17
2018-03-29T00:04:02.721Z,31.23
2018-03-29T00:06:30.939Z,32.13
2018-03-29T00:08:59.214Z,34.70
2018-03-29T00:11:27.451Z,34.85
2018-03-29T00:13:55.692Z,35.25
2018-03-29T00:16:24.693Z,34.55
2018-03-29T00:18:53.705Z,34.70
2018-03-29T00:21:22.690Z,37.72
2018-03-29T00:23:50.926Z,35.63
2018-03-29T00:26:19.157Z,36.70
2018-03-29T00:28:47.399Z,38.03
2018-03-29T00:31:15.626Z,36.10
2018-03-29T00:33:43.877Z,36.35
2018-03-29T00:36:12.887Z,37.83
2018-03-29T00:38:41.140Z,35.75
2018-03-29T00:41:10.130Z,36.07
2018-03-29T00:43:39.156Z,36.92
2018-03-29T00:46:08.329Z,37.38
2018-03-29T00:48:37.344Z,35.80
2018-03-29T00:51:05.577Z,35.88
2018-03-29T00:53:44.685Z,37.42
2018-03-29T00:56:12.941Z,36.40
2018-03-29T00:58:41.188Z,34.25
2018-03-29T01:01:10.230Z,37.28
2018-03-29T01:03:38.458Z,33.58
2018-03-29T01:06:07.458Z,34.70
2018-03-29T01:08:36.497Z,33.17
2018-03-29T01:11:04.729Z,32.35
2018-03-29T01:13:33.728Z,31.70
2018-03-29T01:16:01.982Z,31.08
2018-03-29T01:18:30.993Z,32.38
2018-03-29T01:20:59.220Z,30.60
2018-03-29T01:23:27.462Z,32.90
2018-03-29T01:25:55.707Z,30.70
2018-03-29T01:28:24.727Z,30.33
2018-03-29T01:30:53.000Z,29.60
2018-03-29T01:33:21.217Z,29.83
2018-03-29T01:35:49.482Z,29.10
2018-03-29T01:38:17.723Z,28.85
2018-03-29T01:40:46.377Z,28.38
2018-03-29T01:43:14.649Z,30.10
2018-03-29T01:45:42.832Z,31.25
2018-03-29T01:48:11.850Z,28.38
2018-03-29T01:50:40.119Z,30.37
2018-03-29T01:53:08.343Z,29.45
2018-03-29T01:55:36.570Z,30.85
2018-03-29T01:58:05.615Z,30.48
2018-03-29T02:00:33.952Z,28.15
2018-03-29T02:03:02.228Z,29.33
2018-03-29T02:05:30.501Z,28.92
2018-03-29T02:07:58.749Z,27.50
2018-03-29T02:10:27.020Z,28.85
2018-03-29T02:12:55.254Z,27.00
2018-03-29T02:15:23.491Z,27.65
2018-03-29T02:17:52.502Z,27.50
2018-03-29T02:20:20.714Z,27.10
2018-03-29T02:22:48.965Z,26.30
2018-03-29T02:25:17.349Z,28.15
2018-03-29T02:27:45.580Z,28.42
2018-03-29T02:30:13.834Z,25.62
2018-03-29T02:32:42.063Z,26.95
2018-03-29T02:35:10.349Z,27.45
2018-03-29T02:37:38.648Z,29.30
2018-03-29T02:40:06.908Z,27.70
2018-03-29T02:42:35.264Z,30.15
2018-03-29T02:45:03.615Z,30.23
2018-03-29T02:47:31.807Z,32.22
2018-03-29T02:50:00.818Z,34.03
2018-03-29T02:52:29.120Z,35.33
2018-03-29T02:54:57.374Z,33.05
2018-03-29T02:57:25.612Z,35.35
2018-03-29T02:59:53.872Z,36.75
2018-03-29T03:02:22.112Z,36.72
2018-03-29T03:04:50.384Z,43.75
2018-03-29T03:07:18.761Z,36.60
2018-03-29T03:09:47.008Z,38.60
2018-03-29T03:12:15.251Z,36.35
2018-03-29T03:14:43.501Z,40.13
2018-03-29T03:17:11.726Z,35.85
2018-03-29T03:19:39.981Z,39.33
2018-03-29T03:22:08.238Z,37.13
2018-03-29T03:24:36.466Z,37.95
2018-03-29T03:27:04.734Z,36.20
2018-03-29T03:29:32.984Z,37.53
2018-03-29T03:32:01.210Z,36.95
2018-03-29T03:34:29.480Z,38.07
2018-03-29T03:36:58.544Z,35.80
2018-03-29T03:39:26.787Z,34.78
2018-03-29T03:41:55.047Z,29.23
2018-03-29T03:44:23.325Z,26.75
2018-03-29T03:46:51.578Z,23.80
2018-03-29T03:49:19.801Z,21.53
2018-03-29T03:51:48.051Z,22.62
2018-03-29T03:54:16.279Z,20.80
2018-03-29T03:56:44.507Z,20.17
2018-03-29T03:59:12.816Z,21.17
2018-03-29T04:01:41.047Z,19.08
2018-03-29T04:04:09.272Z,17.17
2018-03-29T04:06:37.676Z,16.35
2018-03-29T04:09:05.881Z,15.90
2018-03-29T04:11:34.135Z,14.68
2018-03-29T04:14:03.145Z,14.07
2018-03-29T04:16:31.419Z,14.77
2018-03-29T04:18:59.707Z,15.33
2018-03-29T04:21:27.942Z,12.48
2018-03-29T04:23:56.238Z,12.37
2018-03-29T04:26:25.226Z,11.10
2018-03-29T04:28:54.230Z,10.90
2018-03-29T04:31:23.241Z,12.10
2018-03-29T04:33:51.480Z,10.07
2018-03-29T04:36:19.715Z,10.32
2018-03-29T04:38:47.999Z,9.55
2018-03-29T04:41:16.182Z,9.80
2018-03-29T04:43:44.410Z,8.73
2018-03-29T04:46:12.642Z,8.77
2018-03-29T04:48:40.866Z,8.60
2018-03-29T04:51:09.145Z,8.57
2018-03-29T04:53:37.372Z,8.90
2018-03-29T04:56:05.640Z,9.37
2018-03-29T04:58:33.842Z,11.12
2018-03-29T05:01:02.104Z,10.47
2018-03-29T05:03:30.314Z,9.88
2018-03-29T05:05:59.351Z,10.40
2018-03-29T05:08:27.608Z,10.25
2018-03-29T05:10:55.860Z,10.35
2018-03-29T05:13:25.081Z,10.55
2018-03-29T05:15:53.303Z,11.25
2018-03-29T05:18:21.545Z,11.02
2018-03-29T05:20:49.791Z,10.80
2018-03-29T05:23:18.037Z,9.70
2018-03-29T05:25:46.255Z,9.35
2018-03-29T05:28:14.502Z,9.50
2018-03-29T05:30:43.520Z,13.27
2018-03-29T05:33:11.767Z,9.57
2018-03-29T05:35:40.754Z,11.25
2018-03-29T05:38:08.987Z,10.17
2018-03-29T05:40:37.235Z,9.35
2018-03-29T05:43:06.247Z,9.20
2018-03-29T05:45:34.488Z,8.88
2018-03-29T05:48:02.731Z,9.45
2018-03-29T05:50:30.974Z,8.27
2018-03-29T05:52:59.203Z,8.77
2018-03-29T05:55:27.458Z,7.70
2018-03-29T05:57:55.711Z,7.70
2018-03-29T06:00:23.951Z,5.60
2018-03-29T06:02:52.942Z,4.30
2018-03-29T06:05:21.170Z,4.00
2018-03-29T06:07:49.383Z,3.80
2018-03-29T06:10:17.619Z,3.72
2018-03-29T06:12:45.829Z,3.62
2018-03-29T06:15:15.855Z,4.97
2018-03-29T06:20:48.626Z,3.50
2018-03-29T06:23:16.965Z,3.80
2018-03-29T06:25:45.121Z,4.10
2018-03-29T06:28:13.368Z,5.60
2018-03-29T06:30:41.642Z,7.53
2018-03-29T06:33:09.860Z,4.43
2018-03-29T06:35:38.087Z,4.82
2018-03-29T06:38:06.315Z,4.22
2018-03-29T06:40:34.538Z,4.90
2018-03-29T06:43:02.790Z,5.05
2018-03-29T06:45:31.030Z,4.80
2018-03-29T06:48:00.023Z,4.80
2018-03-29T06:50:29.035Z,5.20
2018-03-29T06:52:57.319Z,4.50
2018-03-29T06:55:25.533Z,5.30
2018-03-29T06:57:53.751Z,5.68
2018-03-29T07:00:22.754Z,5.07
2018-03-29T07:02:50.978Z,4.03
2018-03-29T07:05:19.229Z,4.57
2018-03-29T07:07:47.462Z,4.55
2018-03-29T07:10:16.465Z,5.37
2018-03-29T07:12:44.701Z,4.80
2018-03-29T07:15:12.985Z,4.40
2018-03-29T07:17:41.211Z,3.73
2018-03-29T07:20:09.461Z,3.58
2018-03-29T07:22:38.470Z,4.30
2018-03-29T07:25:06.733Z,5.18
2018-03-29T07:27:35.730Z,8.07
2018-03-29T07:30:04.754Z,3.73
2018-03-29T07:32:32.977Z,4.05
2018-03-29T07:35:01.222Z,4.20
2018-03-29T07:37:29.458Z,4.45
2018-03-29T07:39:57.745Z,4.95
2018-03-29T07:42:26.711Z,5.30
2018-03-29T07:44:54.958Z,6.20
2018-03-29T07:47:23.165Z,6.12
2018-03-29T07:49:52.179Z,5.03
2018-03-29T07:52:20.414Z,4.57
2018-03-29T07:54:48.649Z,4.43
2018-03-29T07:57:16.886Z,6.22
2018-03-29T07:59:45.879Z,6.53
2018-03-29T08:02:14.905Z,5.20
2018-03-29T08:04:43.113Z,4.68
2018-03-29T08:07:11.367Z,14.68
2018-03-29T08:09:39.625Z,6.35
2018-03-29T08:12:07.860Z,4.87
2018-03-29T08:14:36.088Z,5.47
2018-03-29T08:17:04.318Z,5.30
2018-03-29T08:19:32.576Z,3.60
2018-03-29T08:22:00.815Z,5.93
2018-03-29T08:24:29.055Z,9.43
2018-03-29T08:26:58.051Z,3.03
2018-03-29T08:29:27.064Z,3.50
2018-03-29T08:31:55.286Z,6.55
2018-03-29T08:34:23.530Z,3.22
2018-03-29T08:36:51.772Z,3.30
2018-03-29T08:39:20.754Z,3.25
2018-03-29T08:41:48.959Z,3.42
2018-03-29T08:44:17.190Z,5.67
2018-03-29T08:46:45.414Z,4.90
2018-03-29T08:49:13.662Z,4.57
2018-03-29T08:51:41.884Z,3.25
2018-03-29T08:54:10.100Z,4.60
2018-03-29T08:56:38.370Z,3.33
2018-03-29T08:59:06.610Z,3.10
2018-03-29T09:01:34.866Z,2.45
2018-03-29T09:04:03.118Z,3.53
2018-03-29T09:06:32.222Z,3.65
2018-03-29T09:09:01.218Z,4.03
2018-03-29T09:11:30.268Z,3.62
2018-03-29T09:13:58.500Z,3.45
2018-03-29T09:16:26.854Z,5.00
2018-03-29T09:18:55.103Z,5.68
2018-03-29T09:21:23.324Z,4.40
2018-03-29T09:23:51.736Z,4.35
2018-03-29T09:26:20.240Z,7.15
2018-03-29T09:28:48.578Z,4.50
2018-03-29T09:31:16.922Z,8.65
2018-03-29T09:33:45.226Z,6.70
2018-03-29T09:36:14.209Z,5.57
2018-03-29T09:38:43.306Z,4.45
2018-03-29T09:41:12.309Z,3.78
2018-03-29T09:43:40.530Z,5.10
2018-03-29T09:46:08.812Z,3.10
2018-03-29T09:48:37.074Z,5.13
2018-03-29T09:51:05.302Z,7.00
2018-03-29T09:53:34.268Z,5.15
2018-03-29T09:56:02.498Z,3.62
2018-03-29T09:58:30.845Z,8.23
2018-03-29T10:01:05.691Z,12.70
2018-03-29T10:03:39.829Z,11.07
2018-03-29T10:09:13.373Z,7.45
2018-03-29T10:11:41.635Z,6.37
2018-03-29T10:14:09.897Z,7.25
2018-03-29T10:16:38.162Z,7.62
2018-03-29T10:19:06.501Z,6.80
2018-03-29T10:21:34.769Z,6.65
2018-03-29T10:24:03.053Z,6.75
2018-03-29T10:26:31.238Z,6.30
2018-03-29T10:28:59.484Z,5.50
2018-03-29T10:31:27.785Z,7.72
2018-03-29T10:33:56.075Z,22.15
2018-03-29T10:36:25.151Z,7.80
2018-03-29T10:38:53.464Z,4.85
2018-03-29T10:41:22.661Z,5.90
2018-03-29T10:43:51.728Z,5.07
2018-03-29T10:46:20.788Z,6.80
2018-03-29T10:48:49.089Z,5.10
2018-03-29T10:51:17.313Z,4.10
2018-03-29T10:53:45.826Z,4.97
2018-03-29T10:56:14.917Z,4.67
2018-03-29T10:58:43.123Z,5.57
2018-03-29T11:01:11.354Z,4.63
2018-03-29T11:03:42.999Z,4.80
2018-03-29T11:06:11.214Z,3.50
2018-03-29T11:08:39.463Z,9.27
2018-03-29T11:11:07.761Z,5.53
2018-03-29T11:13:36.109Z,7.90
2018-03-29T11:16:04.454Z,3.13
2018-03-29T11:18:33.525Z,3.57
2018-03-29T11:21:02.421Z,4.23
2018-03-29T11:23:30.693Z,6.73
2018-03-29T11:25:58.953Z,10.77
2018-03-29T11:28:27.194Z,3.07
2018-03-29T11:30:55.471Z,5.10
2018-03-29T11:33:23.784Z,5.37
2018-03-29T11:35:55.526Z,3.80
2018-03-29T11:38:23.859Z,7.20
2018-03-29T11:40:54.631Z,2.93
2018-03-29T11:43:23.745Z,4.33
2018-03-29T11:45:52.177Z,4.00
2018-03-29T11:48:21.211Z,6.27
2018-03-29T11:50:49.419Z,5.03
2018-03-29T11:53:17.771Z,4.63
2018-03-29T11:55:45.983Z,3.90
2018-03-29T11:58:15.235Z,7.20
2018-03-29T12:00:43.465Z,5.03
2018-03-29T12:03:11.739Z,2.47
2018-03-29T12:05:39.940Z,5.00
2018-03-29T12:08:08.973Z,2.87
2018-03-29T12:10:37.212Z,2.43
2018-03-29T12:13:05.954Z,2.23
2018-03-29T12:15:34.204Z,5.37
2018-03-29T12:18:02.497Z,4.07
2018-03-29T12:20:31.210Z,7.03
2018-03-29T12:23:00.176Z,4.83
2018-03-29T12:25:28.545Z,5.80
2018-03-29T12:27:56.868Z,6.60
2018-03-29T12:30:25.100Z,4.23
2018-03-29T12:32:53.450Z,4.93
2018-03-29T12:35:21.761Z,6.17
2018-03-29T12:37:49.998Z,7.53
2018-03-29T12:40:18.251Z,4.93
2018-03-29T12:42:46.479Z,4.33
2018-03-29T12:45:14.689Z,3.87
2018-03-29T12:47:42.996Z,5.40
2018-03-29T12:50:12.051Z,5.07
2018-03-29T12:52:40.314Z,6.33
2018-03-29T12:55:20.437Z,9.53
2018-03-29T12:58:00.544Z,7.43
2018-03-29T13:00:28.796Z,9.17
2018-03-29T13:02:57.130Z,7.43
2018-03-29T13:05:26.137Z,6.80
2018-03-29T13:07:58.131Z,9.37
2018-03-29T13:10:26.515Z,11.17
2018-03-29T13:12:54.950Z,15.40
2018-03-29T13:15:24.108Z,7.33
2018-03-29T13:17:52.347Z,11.67
2018-03-29T13:20:20.776Z,10.40
2018-03-29T13:22:49.145Z,3.73
2018-03-29T13:25:17.587Z,8.43
2018-03-29T13:27:45.863Z,8.73
2018-03-29T13:30:14.103Z,6.57
2018-03-29T13:32:43.118Z,10.13
2018-03-29T13:35:11.382Z,13.47
2018-03-29T13:37:40.586Z,11.43
2018-03-29T13:40:09.685Z,7.47
2018-03-29T13:42:37.971Z,20.97
2018-03-29T13:45:06.294Z,8.40
2018-03-29T13:47:34.561Z,13.10
2018-03-29T13:50:02.781Z,11.80
2018-03-29T13:52:31.868Z,19.63
2018-03-29T13:55:00.130Z,23.07
2018-03-29T13:57:28.362Z,6.97
2018-03-29T13:59:56.681Z,6.00
2018-03-29T14:02:24.952Z,13.20
2018-03-29T14:04:53.268Z,9.67
2018-03-29T14:07:21.526Z,7.77
2018-03-29T14:09:50.633Z,8.67
2018-03-29T14:12:19.650Z,7.53
2018-03-29T14:14:47.937Z,9.40
2018-03-29T14:17:16.333Z,10.77
2018-03-29T14:19:44.665Z,8.53
2018-03-29T14:22:13.674Z,7.97
2018-03-29T14:24:41.925Z,14.73
2018-03-29T14:27:11.047Z,8.83
2018-03-29T14:29:39.287Z,7.67
2018-03-29T14:32:07.511Z,10.73
2018-03-29T14:34:35.764Z,11.17
2018-03-29T14:37:03.990Z,10.70
2018-03-29T14:39:32.227Z,8.63
2018-03-29T14:42:00.501Z,9.27
2018-03-29T14:44:28.745Z,14.70
2018-03-29T14:46:57.801Z,13.93
2018-03-29T14:49:26.804Z,10.87
2018-03-29T14:51:55.054Z,13.97
2018-03-29T14:54:23.301Z,13.07
2018-03-29T14:56:52.375Z,8.60
2018-03-29T14:59:20.611Z,11.87
2018-03-29T15:01:48.853Z,9.43
2018-03-29T15:04:17.877Z,9.23
2018-03-29T15:06:46.126Z,10.27
2018-03-29T15:09:14.359Z,9.43
2018-03-29T15:11:42.578Z,24.33
2018-03-29T15:14:10.846Z,10.87
2018-03-29T15:16:39.836Z,8.53
2018-03-29T15:19:08.858Z,12.70
2018-03-29T15:21:37.079Z,9.13
2018-03-29T15:24:05.324Z,12.17
2018-03-29T15:26:33.666Z,8.30
2018-03-29T15:29:02.736Z,8.87
2018-03-29T15:31:31.024Z,7.93
2018-03-29T15:33:59.207Z,8.67
2018-03-29T15:36:28.229Z,8.90
2018-03-29T15:38:56.471Z,10.23
2018-03-29T15:41:25.471Z,12.10
2018-03-29T15:43:54.742Z,11.30
2018-03-29T15:46:27.787Z,12.13
2018-03-29T15:48:56.856Z,10.27
2018-03-29T15:51:25.858Z,11.50
2018-03-29T15:53:54.085Z,10.57
2018-03-29T15:56:22.327Z,10.77
2018-03-29T15:58:50.542Z,11.70
2018-03-29T16:01:18.769Z,11.73
2018-03-29T16:03:47.000Z,9.67
2018-03-29T16:06:15.287Z,14.40
2018-03-29T16:08:44.285Z,13.53
2018-03-29T16:11:12.818Z,13.97
2018-03-29T16:13:41.097Z,12.73
2018-03-29T16:16:09.341Z,10.47
2018-03-29T16:18:38.371Z,10.13
2018-03-29T16:21:06.646Z,14.50
2018-03-29T16:23:34.956Z,14.27
2018-03-29T16:26:03.230Z,10.13
2018-03-29T16:28:31.497Z,12.93
2018-03-29T16:30:59.767Z,13.03
2018-03-29T16:33:27.995Z,14.37
2018-03-29T16:35:56.997Z,12.63
2018-03-29T16:38:25.279Z,11.90
2018-03-29T16:40:53.541Z,12.33
2018-03-29T16:43:21.770Z,13.83
2018-03-29T16:45:50.781Z,11.97
2018-03-29T16:48:19.043Z,11.83
2018-03-29T16:50:47.313Z,8.20
2018-03-29T16:53:15.621Z,7.50
2018-03-29T16:55:43.896Z,7.93
2018-03-29T16:58:12.178Z,8.87
2018-03-29T17:00:41.201Z,10.57
2018-03-29T17:03:09.425Z,7.43
2018-03-29T17:05:37.673Z,4.80
2018-03-29T17:08:06.000Z,6.07
2018-03-29T17:10:34.237Z,6.20
2018-03-29T17:13:02.509Z,7.20
2018-03-29T17:15:30.731Z,9.33
2018-03-29T17:17:59.210Z,5.93
2018-03-29T17:20:27.584Z,7.53
2018-03-29T17:22:56.028Z,6.67
2018-03-29T17:25:24.258Z,8.37
2018-03-29T17:27:53.350Z,17.33
2018-03-29T17:30:22.365Z,10.77
2018-03-29T17:32:50.627Z,7.80
2018-03-29T17:35:19.637Z,11.73
2018-03-29T17:37:47.856Z,6.73
2018-03-29T17:40:16.095Z,10.37
2018-03-29T17:42:44.478Z,9.07
2018-03-29T17:45:12.713Z,5.97
2018-03-29T17:47:42.739Z,4.60
2018-03-29T17:50:11.739Z,6.93
2018-03-29T17:52:40.745Z,7.53
2018-03-29T17:55:08.967Z,5.13
2018-03-29T17:57:37.199Z,5.77
2018-03-29T18:00:06.363Z,7.27
2018-03-29T18:02:34.642Z,7.03
2018-03-29T18:05:02.918Z,10.43
2018-03-29T18:07:31.165Z,6.27
2018-03-29T18:09:59.534Z,7.93
2018-03-29T18:12:27.799Z,8.03
2018-03-29T18:14:56.226Z,5.90
2018-03-29T18:17:26.150Z,7.17
2018-03-29T18:19:55.147Z,6.93
2018-03-29T18:22:24.155Z,9.63
2018-03-29T18:24:52.392Z,7.90
2018-03-29T18:27:24.366Z,6.13
2018-03-29T18:29:52.614Z,7.63
2018-03-29T18:32:20.935Z,6.97
2018-03-29T18:34:49.935Z,5.30
2018-03-29T18:37:18.993Z,6.97
2018-03-29T18:39:47.234Z,7.00
2018-03-29T18:42:15.469Z,7.27
2018-03-29T18:44:43.770Z,7.97
2018-03-29T18:47:12.751Z,6.03
2018-03-29T18:49:41.823Z,7.00
2018-03-29T18:52:10.193Z,5.40
2018-03-29T18:54:38.565Z,7.97
2018-03-29T18:57:06.800Z,9.53
2018-03-29T18:59:35.226Z,6.03
2018-03-29T19:02:03.500Z,5.20
2018-03-29T19:04:31.749Z,7.00
2018-03-29T19:07:00.030Z,5.90
2018-03-29T19:09:28.385Z,5.63
2018-03-29T19:11:56.610Z,5.97
2018-03-29T19:14:24.929Z,4.90
2018-03-29T19:16:53.267Z,5.23
2018-03-29T19:19:21.630Z,6.73
2018-03-29T19:21:50.135Z,5.30
2018-03-29T19:24:18.534Z,6.47
2018-03-29T19:26:46.846Z,8.37
2018-03-29T19:29:15.134Z,6.87
2018-03-29T19:31:43.532Z,8.20
2018-03-29T19:34:11.851Z,11.93
2018-03-29T19:36:40.829Z,8.80
2018-03-29T19:39:09.231Z,7.33
2018-03-29T19:41:38.247Z,9.20
2018-03-29T19:44:06.465Z,8.70
2018-03-29T19:46:34.692Z,6.63
2018-03-29T19:49:02.953Z,7.07
2018-03-29T19:51:32.123Z,6.90
2018-03-29T19:54:00.359Z,6.53
2018-03-29T19:56:28.597Z,8.03
2018-03-29T19:58:57.758Z,5.67
2018-03-29T20:01:25.986Z,7.23
2018-03-29T20:03:54.235Z,6.83
2018-03-29T20:06:22.587Z,10.27
2018-03-29T20:08:50.822Z,10.33
2018-03-29T20:11:19.166Z,6.73
2018-03-29T20:13:47.531Z,8.57
2018-03-29T20:16:15.737Z,7.80
2018-03-29T20:18:44.747Z,6.53
2018-03-29T20:21:13.071Z,9.53
2018-03-29T20:23:41.373Z,8.33
2018-03-29T20:26:10.415Z,6.80
2018-03-29T20:28:38.644Z,7.30
2018-03-29T20:31:07.662Z,8.00
2018-03-29T20:33:35.886Z,8.27
2018-03-29T20:36:04.157Z,7.10
2018-03-29T20:38:32.737Z,7.70
2018-03-29T20:41:00.943Z,5.73
2018-03-29T20:43:29.181Z,6.67
2018-03-29T20:45:57.410Z,5.90
2018-03-29T20:48:26.406Z,8.33
2018-03-29T20:50:55.435Z,5.60
2018-03-29T20:53:23.707Z,7.03
2018-03-29T20:55:51.987Z,6.80
2018-03-29T20:58:20.308Z,8.53
2018-03-29T21:00:48.513Z,7.40
2018-03-29T21:03:16.758Z,8.53
2018-03-29T21:05:44.952Z,9.97
2018-03-29T21:08:13.949Z,9.70
2018-03-29T21:10:42.995Z,8.83
2018-03-29T21:13:11.993Z,7.17
2018-03-29T21:15:40.235Z,8.53
2018-03-29T21:18:08.482Z,8.57
2018-03-29T21:20:37.473Z,10.63
2018-03-29T21:23:06.450Z,9.10
2018-03-29T21:25:34.764Z,7.13
2018-03-29T21:28:03.758Z,7.57
2018-03-29T21:30:31.993Z,8.83
2018-03-29T21:33:00.224Z,7.47
2018-03-29T21:35:28.478Z,9.63
2018-03-29T21:37:57.446Z,8.93
2018-03-29T21:40:25.687Z,9.07
2018-03-29T21:42:53.910Z,7.53
2018-03-29T21:45:22.888Z,10.13
2018-03-29T21:47:52.011Z,11.57
2018-03-29T21:50:20.243Z,10.93
2018-03-29T21:52:48.482Z,9.07
2018-03-29T21:55:16.687Z,8.73
2018-03-29T21:57:44.952Z,10.57
2018-03-29T22:00:13.148Z,8.47
2018-03-29T22:02:41.401Z,17.10
2018-03-29T22:05:09.642Z,8.77
2018-03-29T22:07:38.636Z,8.73
2018-03-29T22:10:06.862Z,7.37
2018-03-29T22:12:35.096Z,7.70
2018-03-29T22:15:03.313Z,7.87
2018-03-29T22:17:31.525Z,8.70
2018-03-29T22:20:00.529Z,10.17
2018-03-29T22:22:29.504Z,9.13
2018-03-29T22:24:57.742Z,11.13
2018-03-29T22:27:25.963Z,8.60
2018-03-29T22:29:54.961Z,9.43
2018-03-29T22:32:23.953Z,8.00
2018-03-29T22:34:52.963Z,7.27
2018-03-29T22:37:21.232Z,11.00
2018-03-29T22:39:50.237Z,8.33
2018-03-29T22:42:18.445Z,9.93
2018-03-29T22:44:46.683Z,9.03
2018-03-29T22:47:14.930Z,11.93
2018-03-29T22:49:43.146Z,8.13
2018-03-29T22:52:11.390Z,8.80
2018-03-29T22:54:39.601Z,9.87
2018-03-29T22:57:07.853Z,10.50
2018-03-29T22:59:36.858Z,10.50
2018-03-29T23:02:05.065Z,8.57
2018-03-29T23:04:33.398Z,8.00
2018-03-29T23:07:02.390Z,10.23
2018-03-29T23:09:31.367Z,9.23
2018-03-29T23:11:59.637Z,13.00
2018-03-29T23:14:27.833Z,10.60
2018-03-29T23:16:56.823Z,8.00
2018-03-29T23:19:25.158Z,8.33
2018-03-29T23:21:53.366Z,8.67
2018-03-29T23:24:21.596Z,11.93
2018-03-29T23:26:49.826Z,8.83
2018-03-29T23:29:18.829Z,13.20
2018-03-29T23:31:47.807Z,13.43
2018-03-29T23:34:16.862Z,12.47
2018-03-29T23:36:45.793Z,12.70
2018-03-29T23:39:14.802Z,9.83
2018-03-29T23:41:43.784Z,10.03
2018-03-29T23:44:12.055Z,12.10
2018-03-29T23:46:40.274Z,10.53
2018-03-29T23:49:08.527Z,11.97
2018-03-29T23:51:37.562Z,10.67
2018-03-29T23:54:05.796Z,10.30
2018-03-29T23:56:34.768Z,10.83
2018-03-29T23:59:03.021Z,13.93
